createdAt,value
2024-03-28T00:00:17.383Z,100
2024-03-28T00:01:16.849Z,100
2024-03-28T00:02:17.172Z,100
2024-03-28T00:03:17.607Z,100
2024-03-28T00:04:17.984Z,100
2024-03-28T00:05:18.915Z,100
2024-03-28T00:06:19.351Z,100
2024-03-28T00:07:19.749Z,100
2024-03-28T00:08:20.401Z,100
2024-03-28T00:09:21.310Z,100
2024-03-28T00:10:20.832Z,100
2024-03-28T00:11:21.307Z,100
2024-03-28T00:12:21.528Z,100
2024-03-28T00:13:23.382Z,100
2024-03-28T00:14:22.652Z,100
2024-03-28T00:15:22.768Z,100
2024-03-28T00:16:23.193Z,100
2024-03-28T00:17:23.500Z,100
2024-03-28T00:18:23.916Z,100
2024-03-28T00:19:30.517Z,100
2024-03-28T00:20:28.436Z,100
2024-03-28T00:21:29.571Z,100
2024-03-28T00:22:29.897Z,100
2024-03-28T00:23:30.446Z,100
2024-03-28T00:24:30.819Z,100
2024-03-28T00:25:31.765Z,100
2024-03-28T00:26:31.580Z,100
2024-03-28T00:27:31.756Z,100
2024-03-28T00:28:32.283Z,100
2024-03-28T00:29:33.098Z,100
2024-03-28T00:30:33.011Z,100
2024-03-28T00:31:33.642Z,100
2024-03-28T00:32:33.627Z,100
2024-03-28T00:33:34.175Z,100
2024-03-28T00:34:34.475Z,100
2024-03-28T00:35:34.697Z,100
2024-03-28T00:36:35.224Z,100
2024-03-28T00:37:35.622Z,100
2024-03-28T00:38:36.029Z,100
2024-03-28T00:39:36.371Z,100
2024-03-28T00:40:37.704Z,100
2024-03-28T00:41:37.089Z,100
2024-03-28T00:42:37.501Z,100
2024-03-28T00:43:37.907Z,100
2024-03-28T00:44:38.245Z,100
2024-03-28T00:45:38.539Z,100
2024-03-28T00:46:39.068Z,100
2024-03-28T00:47:39.467Z,100
2024-03-28T00:48:39.708Z,100
2024-03-28T00:49:40.225Z,100
2024-03-28T00:50:40.518Z,100
2024-03-28T00:51:40.930Z,100
2024-03-28T00:52:41.352Z,100
2024-03-28T00:53:41.763Z,100
2024-03-28T00:54:41.974Z,100
2024-03-28T00:55:42.396Z,100
2024-03-28T00:56:42.718Z,100
2024-03-28T00:57:43.231Z,100
2024-03-28T00:58:43.648Z,100
2024-03-28T00:59:43.851Z,100
2024-03-28T01:00:45.499Z,100
2024-03-28T01:01:44.785Z,100
2024-03-28T01:02:45.248Z,100
2024-03-28T01:03:45.536Z,100
2024-03-28T01:04:45.838Z,100
2024-03-28T01:05:46.366Z,100
2024-03-28T01:06:46.667Z,100
2024-03-28T01:07:46.988Z,100
2024-03-28T01:08:48.023Z,100
2024-03-28T01:09:48.429Z,100
2024-03-28T01:10:48.150Z,100
2024-03-28T01:11:48.538Z,100
2024-03-28T01:12:48.972Z,100
2024-03-28T01:13:49.704Z,100
2024-03-28T01:14:49.706Z,100
2024-03-28T01:15:50.125Z,100
2024-03-28T01:16:50.328Z,100
2024-03-28T01:17:50.724Z,100
2024-03-28T01:18:51.256Z,100
2024-03-28T01:19:52.686Z,100
2024-03-28T01:20:51.983Z,100
2024-03-28T01:21:52.236Z,100
2024-03-28T01:22:52.531Z,100
2024-03-28T01:23:53.063Z,100
2024-03-28T01:24:53.451Z,100
2024-03-28T01:25:53.759Z,100
2024-03-28T01:26:54.059Z,100
2024-03-28T01:27:54.592Z,100
2024-03-28T01:28:55.008Z,100
2024-03-28T01:29:55.727Z,100
2024-03-28T01:30:58.830Z,100
2024-03-28T01:31:56.348Z,100
2024-03-28T01:32:56.681Z,100
2024-03-28T01:33:57.194Z,100
2024-03-28T01:34:57.811Z,100
2024-03-28T01:35:57.920Z,100
2024-03-28T01:36:58.173Z,100
2024-03-28T01:37:58.535Z,100
2024-03-28T01:38:59.170Z,100
2024-03-28T01:40:01.748Z,100
2024-03-28T01:40:59.683Z,100
2024-03-28T01:42:00.212Z,100
2024-03-28T01:43:12.314Z,100
2024-03-28T01:44:04.768Z,100
2024-03-28T01:45:06.157Z,100
2024-03-28T01:46:07.651Z,100
2024-03-28T01:47:25.463Z,100
2024-03-28T01:48:09.794Z,100
2024-03-28T01:49:10.614Z,100
2024-03-28T01:50:10.764Z,100
2024-03-28T01:51:11.143Z,100
2024-03-28T01:52:12.386Z,100
2024-03-28T01:53:11.673Z,100
2024-03-28T01:54:13.714Z,100
2024-03-28T01:55:11.980Z,100
2024-03-28T01:56:12.728Z,100
2024-03-28T01:57:15.108Z,100
2024-03-28T01:58:13.960Z,100
2024-03-28T01:59:13.851Z,100
2024-03-28T02:00:16.726Z,100
2024-03-28T02:01:15.300Z,100
2024-03-28T02:02:15.494Z,100
2024-03-28T02:03:16.230Z,100
2024-03-28T02:04:15.744Z,100
2024-03-28T02:05:16.435Z,100
2024-03-28T02:06:16.265Z,100
2024-03-28T02:07:16.600Z,100
2024-03-28T02:08:16.906Z,100
2024-03-28T02:09:17.590Z,100
2024-03-28T02:10:18.077Z,100
2024-03-28T02:11:19.345Z,100
2024-03-28T02:12:18.422Z,100
2024-03-28T02:13:19.242Z,100
2024-03-28T02:14:19.153Z,100
2024-03-28T02:15:19.483Z,100
2024-03-28T02:16:19.815Z,100
2024-03-28T02:17:20.101Z,100
2024-03-28T02:18:24.124Z,100
2024-03-28T02:19:21.988Z,100
2024-03-28T02:20:22.077Z,100
2024-03-28T02:21:22.298Z,100
2024-03-28T02:22:22.546Z,100
2024-03-28T02:23:23.017Z,100
2024-03-28T02:24:23.639Z,100
2024-03-28T02:25:25.175Z,100
2024-03-28T02:26:25.011Z,100
2024-03-28T02:27:24.488Z,100
2024-03-28T02:28:24.901Z,100
2024-03-28T02:29:26.270Z,100
2024-03-28T02:30:26.342Z,100
2024-03-28T02:31:26.043Z,100
2024-03-28T02:32:26.250Z,100
2024-03-28T02:33:26.673Z,100
2024-03-28T02:34:27.088Z,100
2024-03-28T02:35:27.591Z,100
2024-03-28T02:36:27.925Z,100
2024-03-28T02:37:28.177Z,100
2024-03-28T02:38:28.443Z,100
2024-03-28T02:39:28.945Z,100
2024-03-28T02:40:29.387Z,100
2024-03-28T02:41:29.579Z,100
2024-03-28T02:42:29.843Z,100
2024-03-28T02:43:31.541Z,100
2024-03-28T02:44:31.060Z,100
2024-03-28T02:45:31.067Z,100
2024-03-28T02:46:31.562Z,100
2024-03-28T02:47:31.777Z,100
2024-03-28T02:48:32.190Z,100
2024-03-28T02:49:32.705Z,100
2024-03-28T02:50:32.913Z,100
2024-03-28T02:51:33.241Z,100
2024-03-28T02:52:33.662Z,100
2024-03-28T02:53:34.065Z,100
2024-03-28T02:54:34.898Z,100
2024-03-28T02:55:34.808Z,100
2024-03-28T02:56:35.139Z,100
2024-03-28T02:57:35.431Z,100
2024-03-28T02:58:35.942Z,100
2024-03-28T02:59:36.264Z,100
2024-03-28T03:00:36.679Z,100
2024-03-28T03:01:37.093Z,100
2024-03-28T03:02:37.302Z,100
2024-03-28T03:03:37.763Z,100
2024-03-28T03:04:38.145Z,100
2024-03-28T03:05:39.271Z,100
2024-03-28T03:06:39.978Z,100
2024-03-28T03:07:39.282Z,100
2024-03-28T03:08:39.501Z,100
2024-03-28T03:09:40.007Z,100
2024-03-28T03:10:40.261Z,100
2024-03-28T03:11:40.669Z,100
2024-03-28T03:12:41.058Z,100
2024-03-28T03:13:41.473Z,100
2024-03-28T03:14:41.882Z,100
2024-03-28T03:15:42.115Z,100
2024-03-28T03:16:42.422Z,100
2024-03-28T03:17:42.724Z,100
2024-03-28T03:18:43.262Z,100
2024-03-28T03:19:44.172Z,100
2024-03-28T03:20:43.983Z,100
2024-03-28T03:21:44.497Z,100
2024-03-28T03:22:45.026Z,100
2024-03-28T03:23:48.172Z,100
2024-03-28T03:24:47.173Z,100
2024-03-28T03:25:47.287Z,100
2024-03-28T03:26:47.714Z,100
2024-03-28T03:27:47.927Z,100
2024-03-28T03:28:48.433Z,100
2024-03-28T03:29:48.752Z,100
2024-03-28T03:30:49.301Z,100
2024-03-28T03:31:49.370Z,100
2024-03-28T03:32:49.691Z,100
2024-03-28T03:33:50.101Z,100
2024-03-28T03:34:50.518Z,100
2024-03-28T03:35:50.829Z,100
2024-03-28T03:36:51.250Z,100
2024-03-28T03:37:51.554Z,100
2024-03-28T03:38:51.876Z,100
2024-03-28T03:40:56.101Z,100
2024-03-28T03:41:57.117Z,100
2024-03-28T03:42:56.820Z,100
2024-03-28T03:43:56.957Z,100
2024-03-28T03:44:57.446Z,100
2024-03-28T03:45:57.797Z,100
2024-03-28T03:46:58.181Z,100
2024-03-28T03:47:58.593Z,100
2024-03-28T03:48:58.927Z,100
2024-03-28T03:49:59.430Z,100
2024-03-28T03:50:59.627Z,100
2024-03-28T03:51:59.960Z,100
2024-03-28T03:53:00.423Z,100
2024-03-28T03:54:00.797Z,100
2024-03-28T03:55:01.307Z,100
2024-03-28T03:56:01.523Z,100
2024-03-28T03:57:01.833Z,100
2024-03-28T03:58:02.140Z,100
2024-03-28T03:59:03.177Z,100
2024-03-28T04:00:02.944Z,100
2024-03-28T04:01:03.610Z,100
2024-03-28T04:02:04.221Z,100
2024-03-28T04:03:04.636Z,100
2024-03-28T04:04:05.371Z,100
2024-03-28T04:05:05.571Z,100
2024-03-28T04:06:05.688Z,100
2024-03-28T04:07:05.474Z,100
2024-03-28T04:08:06.615Z,100
2024-03-28T04:09:06.104Z,100
2024-03-28T04:10:07.247Z,100
2024-03-28T04:11:07.251Z,100
2024-03-28T04:12:07.766Z,100
2024-03-28T04:13:07.606Z,100
2024-03-28T04:14:07.895Z,100
2024-03-28T04:15:09.312Z,100
2024-03-28T04:16:08.709Z,100
2024-03-28T04:17:09.040Z,100
2024-03-28T04:18:09.532Z,100
2024-03-28T04:19:10.170Z,100
2024-03-28T04:20:11.406Z,100
2024-03-28T04:21:10.998Z,100
2024-03-28T04:22:10.905Z,100
2024-03-28T04:23:11.330Z,100
2024-03-28T04:24:11.650Z,100
2024-03-28T04:25:12.048Z,100
2024-03-28T04:26:12.384Z,100
2024-03-28T04:27:12.580Z,100
2024-03-28T04:28:13.194Z,100
2024-03-28T04:29:13.295Z,100
2024-03-28T04:30:15.973Z,100
2024-03-28T04:31:14.666Z,100
2024-03-28T04:32:14.448Z,100
2024-03-28T04:33:15.205Z,100
2024-03-28T04:34:15.394Z,100
2024-03-28T04:35:15.620Z,100
2024-03-28T04:36:16.826Z,100
2024-03-28T04:37:16.243Z,100
2024-03-28T04:38:16.750Z,100
2024-03-28T04:39:16.990Z,100
2024-03-28T04:40:17.719Z,100
2024-03-28T04:41:17.805Z,100
2024-03-28T04:42:18.110Z,100
2024-03-28T04:43:18.626Z,100
2024-03-28T04:44:18.877Z,100
2024-03-28T04:45:19.253Z,100
2024-03-28T04:46:19.800Z,100
2024-03-28T04:47:19.890Z,100
2024-03-28T04:48:20.413Z,100
2024-03-28T04:49:20.888Z,100
2024-03-28T04:50:21.446Z,100
2024-03-28T04:51:21.362Z,100
2024-03-28T04:52:22.086Z,100
2024-03-28T04:53:22.072Z,100
2024-03-28T04:54:22.694Z,100
2024-03-28T04:55:25.262Z,100
2024-03-28T04:56:24.233Z,100
2024-03-28T04:57:24.745Z,100
2024-03-28T04:58:25.144Z,100
2024-03-28T04:59:25.273Z,100
2024-03-28T05:00:25.606Z,100
2024-03-28T05:01:26.239Z,100
2024-03-28T05:02:26.420Z,100
2024-03-28T05:03:26.840Z,100
2024-03-28T05:04:27.068Z,100
2024-03-28T05:05:27.562Z,100
2024-03-28T05:06:28.108Z,100
2024-03-28T05:07:28.310Z,100
2024-03-28T05:08:28.623Z,100
2024-03-28T05:09:28.878Z,100
2024-03-28T05:10:29.465Z,100
2024-03-28T05:11:29.772Z,100
2024-03-28T05:12:30.067Z,100
2024-03-28T05:13:30.384Z,100
2024-03-28T05:14:30.710Z,100
2024-03-28T05:15:31.039Z,100
2024-03-28T05:16:31.546Z,100
2024-03-28T05:17:31.746Z,100
2024-03-28T05:18:32.306Z,100
2024-03-28T05:19:32.688Z,100
2024-03-28T05:20:32.906Z,100
2024-03-28T05:21:34.028Z,100
2024-03-28T05:22:33.626Z,100
2024-03-28T05:23:34.066Z,100
2024-03-28T05:24:34.405Z,100
2024-03-28T05:25:34.791Z,100
2024-03-28T05:26:36.203Z,100
2024-03-28T05:27:35.431Z,100
2024-03-28T05:28:35.808Z,100
2024-03-28T05:29:36.328Z,100
2024-03-28T05:30:36.652Z,100
2024-03-28T05:31:37.554Z,100
2024-03-28T05:32:37.375Z,100
2024-03-28T05:33:37.821Z,100
2024-03-28T05:34:38.132Z,100
2024-03-28T05:35:38.335Z,100
2024-03-28T05:36:38.854Z,100
2024-03-28T05:37:38.979Z,100
2024-03-28T05:38:39.887Z,100
2024-03-28T05:39:39.895Z,100
2024-03-28T05:40:40.332Z,100
2024-03-28T05:41:40.634Z,100
2024-03-28T05:42:42.490Z,100
2024-03-28T05:43:41.348Z,100
2024-03-28T05:44:41.877Z,100
2024-03-28T05:45:43.932Z,100
2024-03-28T05:46:42.565Z,100
2024-03-28T05:47:42.805Z,100
2024-03-28T05:48:43.237Z,100
2024-03-28T05:49:43.640Z,100
2024-03-28T05:50:44.089Z,100
2024-03-28T05:51:44.268Z,100
2024-03-28T05:52:44.704Z,100
2024-03-28T05:53:45.089Z,100
2024-03-28T05:54:45.302Z,100
2024-03-28T05:55:46.132Z,100
2024-03-28T05:56:46.244Z,100
2024-03-28T05:57:46.567Z,100
2024-03-28T05:58:47.590Z,100
2024-03-28T05:59:47.184Z,100
2024-03-28T06:00:47.617Z,100
2024-03-28T06:01:48.031Z,100
2024-03-28T06:02:48.141Z,100
2024-03-28T06:03:48.672Z,100
2024-03-28T06:04:49.082Z,100
2024-03-28T06:05:49.370Z,100
2024-03-28T06:06:50.128Z,100
2024-03-28T06:07:50.150Z,100
2024-03-28T06:08:50.427Z,100
2024-03-28T06:09:50.939Z,100
2024-03-28T06:10:51.283Z,100
2024-03-28T06:11:51.786Z,100
2024-03-28T06:12:52.187Z,100
2024-03-28T06:14:54.598Z,100
2024-03-28T06:15:55.142Z,100
2024-03-28T06:16:55.443Z,100
2024-03-28T06:17:55.915Z,100
2024-03-28T06:18:56.120Z,100
2024-03-28T06:19:56.661Z,100
2024-03-28T06:21:04.536Z,100
2024-03-28T06:21:57.361Z,100
2024-03-28T06:22:57.697Z,100
2024-03-28T06:23:57.994Z,100
2024-03-28T06:24:58.330Z,100
2024-03-28T06:26:02.311Z,100
2024-03-28T06:26:59.588Z,100
2024-03-28T06:28:00.063Z,100
2024-03-28T06:29:00.519Z,100
2024-03-28T06:30:00.892Z,100
2024-03-28T06:31:01.253Z,100
2024-03-28T06:32:01.732Z,100
2024-03-28T06:33:02.046Z,100
2024-03-28T06:34:02.585Z,100
2024-03-28T06:35:02.784Z,100
2024-03-28T06:36:03.536Z,100
2024-03-28T06:37:03.522Z,100
2024-03-28T06:38:04.458Z,100
2024-03-28T06:39:04.253Z,100
2024-03-28T06:40:05.592Z,100
2024-03-28T06:41:05.398Z,100
2024-03-28T06:42:06.123Z,100
2024-03-28T06:43:05.824Z,100
2024-03-28T06:44:06.112Z,100
2024-03-28T06:45:06.941Z,100
2024-03-28T06:46:06.946Z,100
2024-03-28T06:47:07.272Z,100
2024-03-28T06:48:08.209Z,100
2024-03-28T06:49:07.917Z,100
2024-03-28T06:50:09.222Z,100
2024-03-28T06:51:08.637Z,100
2024-03-28T06:52:09.578Z,100
2024-03-28T06:53:09.767Z,100
2024-03-28T06:54:09.764Z,100
2024-03-28T06:55:10.399Z,100
2024-03-28T06:56:10.615Z,100
2024-03-28T06:57:11.951Z,100
2024-03-28T06:58:11.432Z,100
2024-03-28T06:59:11.743Z,100
2024-03-28T07:00:13.314Z,100
2024-03-28T07:01:12.498Z,100
2024-03-28T07:02:13.111Z,100
2024-03-28T07:03:13.615Z,100
2024-03-28T07:04:13.716Z,100
2024-03-28T07:05:14.157Z,100
2024-03-28T07:06:19.324Z,100
2024-03-28T07:07:17.192Z,100
2024-03-28T07:08:17.447Z,100
2024-03-28T07:09:18.066Z,100
2024-03-28T07:10:18.491Z,100
2024-03-28T07:11:18.698Z,100
2024-03-28T07:12:19.108Z,100
2024-03-28T07:13:19.533Z,100
2024-03-28T07:14:20.139Z,100
2024-03-28T07:15:20.157Z,100
2024-03-28T07:16:20.791Z,100
2024-03-28T07:17:21.093Z,100
2024-03-28T07:18:21.308Z,100
2024-03-28T07:19:21.832Z,100
2024-03-28T07:20:22.136Z,100
2024-03-28T07:21:22.888Z,100
2024-03-28T07:22:23.792Z,100
2024-03-28T07:23:23.610Z,100
2024-03-28T07:24:23.791Z,100
2024-03-28T07:25:24.142Z,100
2024-03-28T07:26:24.480Z,100
2024-03-28T07:27:25.234Z,100
2024-03-28T07:28:25.154Z,100
2024-03-28T07:29:25.698Z,100
2024-03-28T07:30:26.286Z,100
2024-03-28T07:31:26.309Z,100
2024-03-28T07:32:27.280Z,100
2024-03-28T07:33:27.330Z,100
2024-03-28T07:34:27.455Z,100
2024-03-28T07:35:29.119Z,100
2024-03-28T07:36:28.291Z,100
2024-03-28T07:37:28.762Z,100
2024-03-28T07:38:29.109Z,100
2024-03-28T07:39:29.530Z,100
2024-03-28T07:40:30.047Z,100
2024-03-28T07:41:30.250Z,100
2024-03-28T07:42:30.811Z,100
2024-03-28T07:43:31.318Z,100
2024-03-28T07:44:31.407Z,100
2024-03-28T07:45:31.936Z,100
2024-03-28T07:46:32.354Z,100
2024-03-28T07:47:34.277Z,100
2024-03-28T07:48:33.602Z,100
2024-03-28T07:49:33.497Z,100
2024-03-28T07:50:34.023Z,100
2024-03-28T07:51:34.316Z,100
2024-03-28T07:52:35.182Z,100
2024-03-28T07:53:35.152Z,100
2024-03-28T07:54:36.954Z,100
2024-03-28T07:55:35.799Z,100
2024-03-28T07:56:36.309Z,100
2024-03-28T07:57:36.707Z,100
2024-03-28T07:58:36.960Z,100
2024-03-28T07:59:37.554Z,100
2024-03-28T08:00:37.971Z,100
2024-03-28T08:01:38.192Z,100
2024-03-28T08:02:38.594Z,100
2024-03-28T08:03:40.410Z,100
2024-03-28T08:04:39.432Z,100
2024-03-28T08:05:39.859Z,100
2024-03-28T08:06:40.382Z,100
2024-03-28T08:07:40.772Z,100
2024-03-28T08:08:40.982Z,100
2024-03-28T08:09:41.513Z,100
2024-03-28T08:10:41.966Z,100
2024-03-28T08:11:42.144Z,100
2024-03-28T08:12:42.687Z,100
2024-03-28T08:13:43.083Z,99.65
2024-03-28T08:14:43.397Z,100
2024-03-28T08:15:44.052Z,100
2024-03-28T08:16:44.260Z,100
2024-03-28T08:17:44.521Z,100
2024-03-28T08:18:45.052Z,98.84
2024-03-28T08:19:45.390Z,98.81
2024-03-28T08:20:46.375Z,99.06
2024-03-28T08:21:46.186Z,99.88
2024-03-28T08:22:46.852Z,99.72
2024-03-28T08:23:47.130Z,98.6
2024-03-28T08:24:47.534Z,98.73
2024-03-28T08:25:48.674Z,98.85
2024-03-28T08:26:48.391Z,99.22
2024-03-28T08:27:49.102Z,98.82
2024-03-28T08:28:49.193Z,98.99
2024-03-28T08:29:49.725Z,99.83
2024-03-28T08:30:49.828Z,99.38
2024-03-28T08:31:50.371Z,98.46
2024-03-28T08:32:54.351Z,97.8
2024-03-28T08:33:51.914Z,97.31
2024-03-28T08:34:52.205Z,97.49
2024-03-28T08:35:52.734Z,96.83
2024-03-28T08:36:53.170Z,97.67
2024-03-28T08:37:53.456Z,96.97
2024-03-28T08:38:53.889Z,97.61
2024-03-28T08:39:54.241Z,96.97
2024-03-28T08:40:54.565Z,97.44
2024-03-28T08:41:55.543Z,96.79
2024-03-28T08:42:55.490Z,95.84
2024-03-28T08:43:56.095Z,95.9
2024-03-28T08:44:56.382Z,95.21
2024-03-28T08:45:56.692Z,95.87
2024-03-28T08:46:57.528Z,95.67
2024-03-28T08:47:57.636Z,96.11
2024-03-28T08:48:58.173Z,96.52
2024-03-28T08:49:58.285Z,96.07
2024-03-28T08:50:58.889Z,95.49
2024-03-28T08:51:59.305Z,96.32
2024-03-28T08:52:59.617Z,95.77
2024-03-28T08:54:00.651Z,95.8
2024-03-28T08:55:01.113Z,95.45
2024-03-28T08:56:00.866Z,94.92
2024-03-28T08:57:01.267Z,96.3
2024-03-28T08:58:01.691Z,95.9
2024-03-28T08:59:03.226Z,95.68
2024-03-28T09:00:02.536Z,95.23
2024-03-28T09:01:03.468Z,95.18
2024-03-28T09:02:03.983Z,97.24
2024-03-28T09:03:04.514Z,94.79
2024-03-28T09:04:04.918Z,94.58
2024-03-28T09:05:05.209Z,95.21
2024-03-28T09:06:05.856Z,95.07
2024-03-28T09:07:05.642Z,95.55
2024-03-28T09:08:06.923Z,95.05
2024-03-28T09:09:06.688Z,95.38
2024-03-28T09:10:07.528Z,95.37
2024-03-28T09:11:07.197Z,95.55
2024-03-28T09:12:08.229Z,95.23
2024-03-28T09:13:08.354Z,95.29
2024-03-28T09:14:08.701Z,95.39
2024-03-28T09:15:09.489Z,94.73
2024-03-28T09:16:09.695Z,94.77
2024-03-28T09:17:09.508Z,94.23
2024-03-28T09:18:09.948Z,93.92
2024-03-28T09:19:10.532Z,93.85
2024-03-28T09:20:12.209Z,94.7
2024-03-28T09:21:11.369Z,95.44
2024-03-28T09:22:11.793Z,96.31
2024-03-28T09:23:12.221Z,95.4
2024-03-28T09:24:12.608Z,95.59
2024-03-28T09:25:12.964Z,96.69
2024-03-28T09:26:13.520Z,95.91
2024-03-28T09:27:14.066Z,96.55
2024-03-28T09:28:14.274Z,97.04
2024-03-28T09:29:14.707Z,97.29
2024-03-28T09:30:14.997Z,97.26
2024-03-28T09:31:15.651Z,96.83
2024-03-28T09:32:15.882Z,95.45
2024-03-28T09:33:16.673Z,95.61
2024-03-28T09:34:17.100Z,95.31
2024-03-28T09:35:17.324Z,95.51
2024-03-28T09:36:19.858Z,95.67
2024-03-28T09:37:19.672Z,95.03
2024-03-28T09:38:19.665Z,95.99
2024-03-28T09:39:20.121Z,95.63
2024-03-28T09:40:20.338Z,95.27
2024-03-28T09:42:24.910Z,96.43
2024-03-28T09:43:24.541Z,95.83
2024-03-28T09:44:25.261Z,96.2
2024-03-28T09:45:26.784Z,97.37
2024-03-28T09:46:27.314Z,97.2
2024-03-28T09:47:27.865Z,97.27
2024-03-28T09:48:27.438Z,97.03
2024-03-28T09:49:29.064Z,98.42
2024-03-28T09:50:29.079Z,97.49
2024-03-28T09:51:28.964Z,98.35
2024-03-28T09:52:31.455Z,97.38
2024-03-28T09:53:30.878Z,97.36
2024-03-28T09:54:32.689Z,96.74
2024-03-28T09:55:30.362Z,96.39
2024-03-28T09:56:30.843Z,96.88
2024-03-28T09:57:31.059Z,97.57
2024-03-28T09:58:31.731Z,97.44
2024-03-28T09:59:31.932Z,96.7
2024-03-28T10:00:33.687Z,95.57
2024-03-28T10:01:33.477Z,94.5
2024-03-28T10:03:38.002Z,94.65
2024-03-28T10:04:37.571Z,95.03
2024-03-28T10:05:37.164Z,95.75
2024-03-28T10:06:37.190Z,95.54
2024-03-28T10:07:37.785Z,96.02
2024-03-28T10:08:39.236Z,96.25
2024-03-28T10:09:38.640Z,96.44
2024-03-28T10:10:39.460Z,95.97
2024-03-28T10:11:41.209Z,95.64
2024-03-28T10:12:39.966Z,95.93
2024-03-28T10:13:40.379Z,96.48
2024-03-28T10:14:41.053Z,96.43
2024-03-28T10:15:41.326Z,95.86
2024-03-28T10:16:43.298Z,95.64
2024-03-28T10:17:42.720Z,95.42
2024-03-28T10:18:42.993Z,96.91
2024-03-28T10:19:43.415Z,96.23
2024-03-28T10:21:47.010Z,95.17
2024-03-28T10:22:47.420Z,93.26
2024-03-28T10:23:47.608Z,93.38
2024-03-28T10:24:49.274Z,94.34
2024-03-28T10:25:48.564Z,94.53
2024-03-28T10:26:49.010Z,93.82
2024-03-28T10:27:49.488Z,93.69
2024-03-28T10:28:50.015Z,92.85
2024-03-28T10:29:53.994Z,93.26
2024-03-28T10:30:55.169Z,93.23
2024-03-28T10:31:52.731Z,93.93
2024-03-28T10:33:58.176Z,94.86
2024-03-28T10:34:58.475Z,95.57
2024-03-28T10:36:00.332Z,95.41
2024-03-28T10:37:06.047Z,95.65
2024-03-28T10:38:09.512Z,95.91
2024-03-28T10:39:05.886Z,95.7
2024-03-28T10:40:07.287Z,96.58
2024-03-28T10:41:07.498Z,94.96
2024-03-28T10:42:09.135Z,94.74
2024-03-28T10:43:07.504Z,95.58
2024-03-28T10:44:11.016Z,95.03
2024-03-28T10:45:09.267Z,94.92
2024-03-28T10:46:11.601Z,95.29
2024-03-28T10:47:12.570Z,96.44
2024-03-28T10:48:17.783Z,96.3
2024-03-28T10:49:11.246Z,95.96
2024-03-28T10:55:27.757Z,95.98
2024-03-28T10:56:23.283Z,96.26
2024-03-28T10:57:22.457Z,95.02
2024-03-28T10:58:22.982Z,94.46
2024-03-28T10:59:26.571Z,94.46
2024-03-28T11:00:25.019Z,94.12
2024-03-28T11:01:25.565Z,92.91
2024-03-28T11:02:26.201Z,93.13
2024-03-28T11:03:27.300Z,94.06
2024-03-28T11:04:26.839Z,93.22
2024-03-28T11:05:28.049Z,92.88
2024-03-28T11:06:27.321Z,93.07
2024-03-28T11:07:27.947Z,93.84
2024-03-28T11:08:33.080Z,94.25
2024-03-28T11:09:30.714Z,94.6
2024-03-28T11:10:31.551Z,94.88
2024-03-28T11:11:32.277Z,93.91
2024-03-28T11:12:31.965Z,93.07
2024-03-28T11:13:32.659Z,92.6
2024-03-28T11:14:32.976Z,92.99
2024-03-28T11:15:33.429Z,92.16
2024-03-28T11:16:33.957Z,93.2
2024-03-28T11:17:41.029Z,93.51
2024-03-28T11:18:38.995Z,92.62
2024-03-28T11:19:39.239Z,93.03
2024-03-28T11:20:39.613Z,92.71
2024-03-28T11:21:40.040Z,93.16
2024-03-28T11:22:40.551Z,94.21
2024-03-28T11:23:47.099Z,94.8
2024-03-28T11:24:44.998Z,93.97
2024-03-28T11:25:46.194Z,94.01
2024-03-28T11:26:54.299Z,94.25
2024-03-28T11:27:46.837Z,93.78
2024-03-28T11:28:47.652Z,92.2
2024-03-28T11:29:48.070Z,92.38
2024-03-28T11:30:55.650Z,93.7
2024-03-28T11:31:59.746Z,93.15
2024-03-28T11:34:03.992Z,93.03
2024-03-28T11:35:09.516Z,93.56
2024-03-28T11:36:03.771Z,94.64
2024-03-28T11:37:02.659Z,95.32
2024-03-28T11:38:10.548Z,93.34
2024-03-28T11:39:08.182Z,93.72
2024-03-28T11:40:09.961Z,94.35
2024-03-28T11:41:09.225Z,95.27
2024-03-28T11:42:31.875Z,95.04
2024-03-28T11:43:17.936Z,94.03
2024-03-28T11:45:19.630Z,92.66
2024-03-28T11:46:20.333Z,91.62
2024-03-28T11:47:23.643Z,92.82
2024-03-28T11:48:25.560Z,91.88
2024-03-28T11:49:23.234Z,91.82
2024-03-28T11:50:27.401Z,92.12
2024-03-28T11:51:26.390Z,92.37
2024-03-28T11:52:26.615Z,90.98
2024-03-28T11:53:27.134Z,90.49
2024-03-28T11:54:28.272Z,91.14
2024-03-28T11:55:28.027Z,92.96
2024-03-28T11:56:32.173Z,91.95
2024-03-28T11:57:29.825Z,91.66
2024-03-28T11:58:30.833Z,90.22
2024-03-28T11:59:30.671Z,91.62
2024-03-28T12:00:31.898Z,91.49
2024-03-28T12:01:31.487Z,92.23
2024-03-28T12:02:32.311Z,91.52
2024-03-28T12:03:32.852Z,92.16
2024-03-28T12:04:33.113Z,91.8
2024-03-28T12:05:34.070Z,93.07
2024-03-28T12:06:33.971Z,92.04
2024-03-28T12:07:34.399Z,92.52
2024-03-28T12:08:41.529Z,93.01
2024-03-28T12:09:35.327Z,92.91
2024-03-28T12:10:36.428Z,93.8
2024-03-28T12:11:36.073Z,93.28
2024-03-28T12:12:40.272Z,92.71
2024-03-28T12:13:38.028Z,92.59
2024-03-28T12:14:38.429Z,92.79
2024-03-28T12:15:38.839Z,92.36
2024-03-28T12:16:46.545Z,91.91
2024-03-28T12:17:44.494Z,93.03
2024-03-28T12:18:44.493Z,93.1
2024-03-28T12:19:44.807Z,92.24
2024-03-28T12:20:45.435Z,93.46
2024-03-28T12:21:45.872Z,93.95
2024-03-28T12:22:47.388Z,92.69
2024-03-28T12:23:47.283Z,92.16
2024-03-28T12:24:47.711Z,92.26
2024-03-28T12:25:48.268Z,92.68
2024-03-28T12:26:48.654Z,92.81
2024-03-28T12:28:53.995Z,90.87
2024-03-28T12:29:54.287Z,90.85
2024-03-28T12:30:56.372Z,90.39
2024-03-28T12:34:14.116Z,91.58
2024-03-28T12:35:08.362Z,93.04
2024-03-28T12:36:09.240Z,91.92
2024-03-28T12:37:09.731Z,91.46
2024-03-28T12:38:13.811Z,91.23
2024-03-28T12:39:11.798Z,91.26
2024-03-28T12:40:12.479Z,91.81
2024-03-28T12:41:19.483Z,92.04
2024-03-28T12:43:21.325Z,93.09
2024-03-28T12:44:19.515Z,91.99
2024-03-28T12:45:26.246Z,92.43
2024-03-28T12:46:24.130Z,90.8
2024-03-28T12:47:24.722Z,90.85
2024-03-28T12:48:24.845Z,90.52
2024-03-28T12:49:25.152Z,90.58
2024-03-28T12:50:25.792Z,91.07
2024-03-28T12:51:26.786Z,90.22
2024-03-28T12:52:26.597Z,90.24
2024-03-28T12:53:26.931Z,90.74
2024-03-28T12:54:27.333Z,90.06
2024-03-28T12:55:30.738Z,90.38
2024-03-28T12:56:29.076Z,90.33
2024-03-28T12:57:28.878Z,90.6
2024-03-28T12:58:29.196Z,90.27
2024-03-28T12:59:29.814Z,90.12
2024-03-28T13:00:30.470Z,90.61
2024-03-28T13:01:30.792Z,90.62
2024-03-28T13:02:31.181Z,90.14
2024-03-28T13:03:31.795Z,88.94
2024-03-28T13:04:32.556Z,89.41
2024-03-28T13:05:32.533Z,90.3
2024-03-28T13:06:33.570Z,91.22
2024-03-28T13:07:33.773Z,90.86
2024-03-28T13:08:33.779Z,90.38
2024-03-28T13:09:34.177Z,90.08
2024-03-28T13:10:34.530Z,90.63
2024-03-28T13:11:35.135Z,89.7
2024-03-28T13:12:36.146Z,89.41
2024-03-28T13:13:35.962Z,89.4
2024-03-28T13:14:36.472Z,89.43
2024-03-28T13:15:37.182Z,89.29
2024-03-28T13:16:37.345Z,88.84
2024-03-28T13:17:37.743Z,89.17
2024-03-28T13:18:38.129Z,89.67
2024-03-28T13:19:38.586Z,90.24
2024-03-28T13:20:39.274Z,90.03
2024-03-28T13:21:39.682Z,90.41
2024-03-28T13:22:42.720Z,90.8
2024-03-28T13:23:41.673Z,90.56
2024-03-28T13:24:42.293Z,91.21
2024-03-28T13:25:52.929Z,90.9
2024-03-28T13:27:05.957Z,91.12
2024-03-28T13:27:45.999Z,90.85
2024-03-28T13:28:46.533Z,91.63
2024-03-28T13:29:46.952Z,90.85
2024-03-28T13:30:47.346Z,90.85
2024-03-28T13:31:47.857Z,90.79
2024-03-28T13:32:48.359Z,91.05
2024-03-28T13:33:48.786Z,91.23
2024-03-28T13:34:49.396Z,92.24
2024-03-28T13:35:49.526Z,91.31
2024-03-28T13:37:53.310Z,90.92
2024-03-28T13:38:53.626Z,90.04
2024-03-28T13:39:54.054Z,89.45
2024-03-28T13:40:54.671Z,88.38
2024-03-28T13:41:55.193Z,89.57
2024-03-28T13:42:55.567Z,89.7
2024-03-28T13:43:56.020Z,89.39
2024-03-28T13:44:56.438Z,89.46
2024-03-28T13:45:56.852Z,88.8
2024-03-28T13:46:57.269Z,89
2024-03-28T13:47:57.818Z,88.76
2024-03-28T13:48:58.190Z,88.44
2024-03-28T13:49:58.509Z,88.37
2024-03-28T13:50:59.846Z,88.25